createdAt,value
2023-03-19T00:00:30.404Z,11.68
2023-03-19T00:02:57.819Z,13.27
2023-03-19T00:05:25.448Z,9.80
2023-03-19T00:07:52.299Z,8.80
2023-03-19T00:10:19.582Z,12.80
2023-03-19T00:12:46.581Z,6.97
2023-03-19T00:15:14.721Z,11.02
2023-03-19T00:17:44.744Z,9.10
2023-03-19T00:20:13.009Z,9.15
2023-03-19T00:22:40.338Z,9.63
2023-03-19T00:25:08.528Z,10.43
2023-03-19T00:27:37.420Z,11.32
2023-03-19T00:30:15.078Z,17.05
2023-03-19T00:32:42.245Z,10.88
2023-03-19T00:35:09.447Z,16.27
2023-03-19T00:37:37.355Z,13.63
2023-03-19T00:40:05.218Z,13.15
2023-03-19T00:42:33.953Z,11.05
2023-03-19T00:45:01.203Z,9.13
2023-03-19T00:47:28.155Z,13.15
2023-03-19T00:49:55.776Z,10.73
2023-03-19T00:52:23.089Z,9.57
2023-03-19T00:54:50.237Z,11.05
2023-03-19T00:57:18.864Z,10.82
2023-03-19T00:59:45.776Z,11.80
2023-03-19T01:02:12.865Z,10.27
2023-03-19T01:04:39.789Z,7.72
2023-03-19T01:07:07.219Z,7.35
2023-03-19T01:09:35.994Z,9.27
2023-03-19T01:12:04.820Z,6.43
2023-03-19T01:14:32.789Z,13.02
2023-03-19T01:17:00.202Z,12.10
2023-03-19T01:19:27.626Z,6.63
2023-03-19T01:21:54.651Z,11.43
2023-03-19T01:24:23.535Z,10.82
2023-03-19T01:26:55.585Z,5.45
2023-03-19T01:29:31.977Z,10.90
2023-03-19T01:32:06.130Z,7.57
2023-03-19T01:34:36.700Z,9.48
2023-03-19T01:37:11.697Z,6.63
2023-03-19T01:39:40.578Z,13.40
2023-03-19T01:42:11.839Z,9.45
2023-03-19T01:45:33.304Z,13.80
2023-03-19T01:48:40.672Z,5.53
2023-03-19T01:51:14.442Z,6.97
2023-03-19T01:53:52.643Z,7.78
2023-03-19T01:56:39.140Z,9.85
2023-03-19T01:59:22.878Z,10.30
2023-03-19T02:02:19.428Z,8.48
2023-03-19T02:04:49.285Z,7.43
2023-03-19T02:07:17.498Z,6.15
2023-03-19T02:09:44.779Z,9.85
2023-03-19T02:12:12.804Z,10.32
2023-03-19T02:14:39.753Z,5.70
2023-03-19T02:17:08.545Z,10.82
2023-03-19T02:19:49.227Z,14.17
2023-03-19T02:22:21.211Z,9.65
2023-03-19T02:25:05.414Z,9.57
2023-03-19T02:27:33.572Z,12.55
2023-03-19T02:30:02.774Z,7.50
2023-03-19T02:32:30.485Z,9.18
2023-03-19T02:34:57.354Z,8.88
2023-03-19T02:37:40.887Z,8.18
2023-03-19T02:40:11.682Z,7.78
2023-03-19T02:42:38.546Z,9.55
2023-03-19T02:45:05.976Z,7.90
2023-03-19T02:47:33.125Z,10.55
2023-03-19T02:49:59.997Z,8.95
2023-03-19T02:52:27.734Z,14.02
2023-03-19T02:54:55.551Z,13.25
2023-03-19T02:57:22.764Z,10.65
2023-03-19T02:59:49.725Z,14.07
2023-03-19T03:02:16.689Z,11.27
2023-03-19T03:04:43.804Z,10.50
2023-03-19T03:07:10.754Z,13.55
2023-03-19T03:09:37.581Z,8.70
2023-03-19T03:12:08.400Z,8.95
2023-03-19T03:14:36.097Z,8.05
2023-03-19T03:17:03.113Z,14.35
2023-03-19T03:19:30.064Z,12.88
2023-03-19T03:21:57.963Z,10.48
2023-03-19T03:24:24.841Z,10.82
2023-03-19T03:26:51.739Z,8.60
2023-03-19T03:29:20.699Z,8.35
2023-03-19T03:31:47.704Z,11.00
2023-03-19T03:34:15.408Z,16.13
2023-03-19T03:36:42.369Z,8.02
2023-03-19T03:39:09.319Z,6.63
2023-03-19T03:41:36.511Z,7.80
2023-03-19T03:44:03.412Z,7.18
2023-03-19T03:46:33.368Z,7.25
2023-03-19T03:49:01.171Z,9.80
2023-03-19T03:51:28.266Z,8.32
2023-03-19T03:53:55.623Z,8.85
2023-03-19T03:56:22.551Z,6.72
2023-03-19T03:58:49.434Z,7.80
2023-03-19T04:01:17.235Z,8.30
2023-03-19T04:03:47.597Z,12.45
2023-03-19T04:06:17.355Z,9.98
2023-03-19T04:11:11.915Z,11.27
2023-03-19T04:13:39.305Z,7.97
2023-03-19T04:16:08.215Z,9.02
2023-03-19T04:18:36.810Z,7.18
2023-03-19T04:21:05.003Z,10.90
2023-03-19T04:23:32.275Z,8.38
2023-03-19T04:26:01.784Z,7.72
2023-03-19T04:28:30.091Z,9.35
2023-03-19T04:31:02.092Z,7.85
2023-03-19T04:33:32.003Z,7.80
2023-03-19T04:35:59.138Z,7.32
2023-03-19T04:38:27.782Z,9.65
2023-03-19T04:40:58.175Z,7.80
2023-03-19T04:43:25.723Z,10.52
2023-03-19T04:45:53.309Z,8.48
2023-03-19T04:48:23.215Z,11.32
2023-03-19T04:50:53.240Z,11.68
2023-03-19T04:53:20.746Z,9.15
2023-03-19T04:55:48.364Z,9.90
2023-03-19T04:58:18.091Z,4.97
2023-03-19T05:00:49.801Z,6.35
2023-03-19T05:03:22.205Z,8.52
2023-03-19T05:05:49.287Z,7.68
2023-03-19T05:08:16.485Z,14.38
2023-03-19T05:10:44.238Z,15.73
2023-03-19T05:13:11.498Z,5.20
2023-03-19T05:15:44.351Z,6.63
2023-03-19T05:18:12.858Z,7.90
2023-03-19T05:20:43.336Z,12.90
2023-03-19T05:23:20.297Z,10.43
2023-03-19T05:26:06.705Z,10.70
2023-03-19T05:28:52.085Z,6.82
2023-03-19T05:31:30.511Z,14.00
2023-03-19T05:33:57.529Z,10.02
2023-03-19T05:36:24.792Z,7.60
2023-03-19T05:39:04.091Z,11.38
2023-03-19T05:41:35.465Z,9.00
2023-03-19T05:44:05.415Z,6.35
2023-03-19T05:46:44.151Z,9.63
2023-03-19T05:49:11.674Z,6.65
2023-03-19T05:51:39.009Z,5.30
2023-03-19T05:54:07.713Z,8.57
2023-03-19T05:56:37.350Z,8.10
2023-03-19T05:59:30.478Z,5.55
2023-03-19T06:02:12.300Z,11.00
2023-03-19T06:04:39.911Z,7.57
2023-03-19T06:07:07.779Z,23.27
2023-03-19T06:09:36.633Z,7.72
2023-03-19T06:12:04.086Z,7.72
2023-03-19T06:14:54.332Z,10.82
2023-03-19T06:17:50.383Z,9.30
2023-03-19T06:20:18.094Z,8.43
2023-03-19T06:22:45.736Z,9.73
2023-03-19T06:25:13.008Z,9.32
2023-03-19T06:27:41.510Z,12.68
2023-03-19T06:30:24.305Z,9.48
2023-03-19T06:32:51.968Z,10.88
2023-03-19T06:35:19.378Z,7.88
2023-03-19T06:37:49.069Z,6.07
2023-03-19T06:40:16.024Z,13.80
2023-03-19T06:42:47.268Z,13.10
2023-03-19T06:45:18.978Z,10.48
2023-03-19T06:50:22.959Z,12.35
2023-03-19T06:52:50.388Z,10.57
2023-03-19T06:55:17.842Z,11.88
2023-03-19T06:57:49.275Z,9.40
2023-03-19T07:00:16.931Z,11.20
2023-03-19T07:02:43.852Z,17.90
2023-03-19T07:05:11.419Z,12.10
2023-03-19T07:07:38.219Z,11.07
2023-03-19T07:10:06.630Z,10.82
2023-03-19T07:12:33.496Z,10.48
2023-03-19T07:15:00.390Z,12.57
2023-03-19T07:17:27.243Z,12.60
2023-03-19T07:19:54.184Z,18.13
2023-03-19T07:22:22.065Z,12.45
2023-03-19T07:24:49.062Z,14.45
2023-03-19T07:27:16.503Z,11.88
2023-03-19T07:29:43.820Z,8.75
2023-03-19T07:32:11.684Z,11.13
2023-03-19T07:34:38.916Z,10.10
2023-03-19T07:37:06.206Z,13.40
2023-03-19T07:39:33.063Z,13.93
2023-03-19T07:41:59.862Z,10.60
2023-03-19T07:44:29.829Z,12.20
2023-03-19T07:46:56.933Z,12.43
2023-03-19T07:49:24.236Z,8.57
2023-03-19T07:51:51.261Z,11.90
2023-03-19T07:54:18.506Z,11.02
2023-03-19T07:56:45.414Z,15.82
2023-03-19T07:59:12.504Z,10.32
2023-03-19T08:01:39.321Z,13.95
2023-03-19T08:04:06.363Z,11.43
2023-03-19T08:06:33.592Z,11.38
2023-03-19T08:09:00.834Z,10.10
2023-03-19T08:11:29.862Z,10.27
2023-03-19T08:13:56.697Z,11.45
2023-03-19T08:16:23.671Z,12.60
2023-03-19T08:18:52.570Z,10.95
2023-03-19T08:21:19.659Z,8.25
2023-03-19T08:23:46.680Z,10.48
2023-03-19T08:26:13.983Z,13.48
2023-03-19T08:28:40.828Z,11.80
2023-03-19T08:31:12.749Z,9.48
2023-03-19T08:33:40.894Z,8.43
2023-03-19T08:36:10.734Z,9.65
2023-03-19T08:38:38.068Z,14.85
2023-03-19T08:41:06.347Z,10.70
2023-03-19T08:43:36.773Z,10.48
2023-03-19T08:46:05.479Z,14.05
2023-03-19T08:48:32.381Z,7.90
2023-03-19T08:51:02.629Z,8.82
2023-03-19T08:53:31.033Z,15.35
2023-03-19T08:56:00.192Z,15.13
2023-03-19T08:58:28.302Z,16.73
2023-03-19T09:01:10.045Z,16.95
2023-03-19T09:03:38.058Z,11.57
2023-03-19T09:06:06.871Z,8.93
2023-03-19T09:08:34.805Z,12.30
2023-03-19T09:11:01.739Z,15.63
2023-03-19T09:13:28.599Z,9.10
2023-03-19T09:15:55.968Z,14.02
2023-03-19T09:18:25.901Z,14.18
2023-03-19T09:20:54.037Z,8.98
2023-03-19T09:23:21.661Z,8.30
2023-03-19T09:25:48.745Z,8.80
2023-03-19T09:28:16.626Z,12.15
2023-03-19T09:30:46.732Z,9.52
2023-03-19T09:33:14.440Z,10.38
2023-03-19T09:35:42.153Z,9.43
2023-03-19T09:38:09.235Z,8.07
2023-03-19T09:40:43.734Z,5.53
2023-03-19T09:43:33.064Z,7.45
2023-03-19T09:46:04.134Z,9.15
2023-03-19T09:48:39.370Z,7.82
2023-03-19T09:51:14.600Z,8.50
2023-03-19T09:53:58.271Z,11.68
2023-03-19T09:56:25.870Z,14.38
2023-03-19T09:58:53.865Z,9.48
2023-03-19T10:01:27.618Z,17.38
2023-03-19T10:04:00.730Z,11.25
2023-03-19T10:06:29.830Z,9.55
2023-03-19T10:09:21.735Z,7.43
2023-03-19T10:12:30.170Z,10.32
2023-03-19T10:15:19.888Z,13.65
2023-03-19T10:17:55.602Z,9.13
2023-03-19T10:20:22.892Z,11.07
2023-03-19T10:22:55.486Z,10.52
2023-03-19T10:25:26.408Z,9.60
2023-03-19T10:28:16.125Z,13.93
2023-03-19T10:30:49.663Z,8.98
2023-03-19T10:33:16.949Z,11.77
2023-03-19T10:35:45.604Z,7.45
2023-03-19T10:38:24.629Z,10.85
2023-03-19T10:41:11.911Z,10.20
2023-03-19T10:43:41.060Z,7.55
2023-03-19T10:46:13.930Z,10.20
2023-03-19T10:48:44.829Z,7.00
2023-03-19T10:51:15.809Z,6.88
2023-03-19T10:54:00.130Z,9.52
2023-03-19T10:56:33.987Z,10.10
2023-03-19T10:59:20.823Z,11.25
2023-03-19T11:01:47.743Z,6.30
2023-03-19T11:04:22.474Z,6.53
2023-03-19T11:06:51.571Z,8.75
2023-03-19T11:09:44.229Z,7.72
2023-03-19T11:12:25.496Z,11.52
2023-03-19T11:14:53.934Z,8.30
2023-03-19T11:17:22.655Z,7.70
2023-03-19T11:19:52.915Z,7.57
2023-03-19T11:25:01.838Z,11.18
2023-03-19T11:27:35.155Z,8.30
2023-03-19T11:30:07.578Z,8.65
2023-03-19T11:33:04.820Z,11.32
2023-03-19T11:36:01.742Z,9.13
2023-03-19T11:38:37.687Z,15.13
2023-03-19T11:41:19.988Z,8.05
2023-03-19T11:43:54.357Z,5.35
2023-03-19T11:46:47.587Z,5.68
2023-03-19T11:49:32.827Z,10.02
2023-03-19T11:52:19.981Z,6.00
2023-03-19T11:55:17.670Z,10.15
2023-03-19T11:57:59.738Z,6.13
2023-03-19T12:00:26.635Z,7.57
2023-03-19T12:03:20.693Z,3.72
2023-03-19T12:06:34.473Z,6.82
2023-03-19T12:09:09.651Z,5.32
2023-03-19T12:11:45.869Z,3.88
2023-03-19T12:14:27.752Z,3.25
2023-03-19T12:17:45.790Z,4.80
2023-03-19T12:20:24.576Z,3.17
2023-03-19T12:23:00.510Z,2.95
2023-03-19T12:25:33.716Z,2.33
2023-03-19T12:28:22.773Z,3.10
2023-03-19T12:31:05.373Z,3.97
2023-03-19T12:33:43.564Z,1.80
2023-03-19T12:36:17.335Z,2.00
2023-03-19T12:38:53.462Z,2.22
2023-03-19T12:41:28.233Z,2.22
2023-03-19T12:44:10.461Z,2.28
2023-03-19T12:46:46.031Z,3.10
2023-03-19T12:49:25.814Z,4.28
2023-03-19T12:52:02.204Z,3.03
2023-03-19T12:54:35.407Z,3.10
2023-03-19T12:57:07.297Z,3.13
2023-03-19T12:59:43.027Z,2.22
2023-03-19T13:02:33.190Z,2.45
2023-03-19T13:05:12.833Z,2.15
2023-03-19T13:07:50.724Z,1.13
2023-03-19T13:10:21.954Z,1.45
2023-03-19T13:12:51.758Z,2.05
2023-03-19T13:15:30.862Z,1.98
2023-03-19T13:18:03.856Z,2.47
2023-03-19T13:20:31.242Z,1.33
2023-03-19T13:23:02.529Z,1.67
2023-03-19T13:25:39.919Z,4.25
2023-03-19T13:28:10.447Z,2.45
2023-03-19T13:30:42.479Z,1.15
2023-03-19T13:33:22.894Z,2.95
2023-03-19T13:35:50.696Z,2.70
2023-03-19T13:38:22.499Z,4.65
2023-03-19T13:40:56.640Z,5.75
2023-03-19T13:43:29.580Z,5.55
2023-03-19T13:46:12.302Z,2.50
2023-03-19T13:48:45.314Z,1.30
2023-03-19T13:51:18.180Z,1.33
2023-03-19T13:54:13.170Z,6.85
2023-03-19T13:57:08.830Z,1.60
2023-03-19T13:59:37.930Z,2.13
2023-03-19T14:02:25.545Z,7.53
2023-03-19T14:05:16.958Z,3.58
2023-03-19T14:07:50.463Z,3.38
2023-03-19T14:10:29.169Z,5.10
2023-03-19T14:13:07.063Z,6.05
2023-03-19T14:15:34.943Z,7.55
2023-03-19T14:18:16.600Z,12.32
2023-03-19T14:21:07.180Z,7.38
2023-03-19T14:23:43.031Z,2.67
2023-03-19T14:26:22.894Z,2.50
2023-03-19T14:29:13.686Z,8.50
2023-03-19T14:32:06.068Z,1.02
2023-03-19T14:34:34.824Z,2.38
2023-03-19T14:37:22.476Z,2.40
2023-03-19T14:39:57.681Z,4.75
2023-03-19T14:42:31.567Z,1.55
2023-03-19T14:45:29.231Z,10.75
2023-03-19T14:48:14.934Z,2.10
2023-03-19T14:50:57.075Z,4.38
2023-03-19T14:54:02.053Z,0.80
2023-03-19T14:56:34.921Z,1.27
2023-03-19T14:59:07.596Z,1.55
2023-03-19T15:01:41.148Z,1.33
2023-03-19T15:04:11.070Z,1.80
2023-03-19T15:06:41.041Z,2.55
2023-03-19T15:09:31.302Z,1.75
2023-03-19T15:12:13.486Z,1.42
2023-03-19T15:15:31.517Z,2.30
2023-03-19T15:18:04.125Z,1.08
2023-03-19T15:20:38.889Z,1.08
2023-03-19T15:23:23.420Z,0.98
2023-03-19T15:26:00.298Z,1.73
2023-03-19T15:28:44.766Z,1.42
2023-03-19T15:31:29.797Z,0.80
2023-03-19T15:33:59.959Z,1.15
2023-03-19T15:36:33.334Z,0.68
2023-03-19T15:39:21.064Z,1.80
2023-03-19T15:41:50.183Z,0.80
2023-03-19T15:44:25.655Z,0.80
2023-03-19T15:46:52.946Z,8.65
2023-03-19T15:49:26.773Z,1.88
2023-03-19T15:51:59.090Z,2.75
2023-03-19T15:54:27.123Z,1.00
2023-03-19T15:56:54.643Z,1.52
2023-03-19T15:59:25.908Z,3.55
2023-03-19T16:01:56.665Z,0.98
2023-03-19T16:04:26.979Z,2.42
2023-03-19T16:09:42.925Z,1.08
2023-03-19T16:12:39.917Z,1.30
2023-03-19T16:15:22.231Z,1.42
2023-03-19T16:18:22.078Z,1.45
2023-03-19T16:21:10.248Z,1.50
2023-03-19T16:23:42.256Z,1.90
2023-03-19T16:26:15.618Z,2.25
2023-03-19T16:28:46.425Z,1.90
2023-03-19T16:31:26.077Z,2.67
2023-03-19T16:33:53.536Z,2.03
2023-03-19T16:36:21.260Z,4.85
2023-03-19T16:38:57.398Z,3.00
2023-03-19T16:41:32.481Z,3.00
2023-03-19T16:44:17.843Z,2.97
2023-03-19T16:46:45.224Z,3.70
2023-03-19T16:49:12.070Z,2.92
2023-03-19T16:51:39.717Z,2.65
2023-03-19T16:54:06.735Z,3.08
2023-03-19T16:56:33.837Z,2.85
2023-03-19T16:59:02.966Z,5.90
2023-03-19T17:01:30.118Z,2.25
2023-03-19T17:03:57.104Z,2.72
2023-03-19T17:06:24.363Z,2.47
2023-03-19T17:08:51.221Z,2.67
2023-03-19T17:11:34.742Z,2.15
2023-03-19T17:14:03.515Z,5.07
2023-03-19T17:16:31.183Z,3.95
2023-03-19T17:18:58.220Z,2.80
2023-03-19T17:21:28.546Z,4.05
2023-03-19T17:23:55.787Z,5.15
2023-03-19T17:26:28.682Z,5.88
2023-03-19T17:28:57.066Z,5.55
2023-03-19T17:31:28.903Z,2.30
2023-03-19T17:34:12.651Z,5.22
2023-03-19T17:36:40.245Z,2.67
2023-03-19T17:39:07.871Z,3.90
2023-03-19T17:41:35.648Z,3.83
2023-03-19T17:44:06.242Z,1.83
2023-03-19T17:46:42.611Z,2.38
2023-03-19T17:49:25.258Z,4.55
2023-03-19T17:51:52.682Z,6.10
2023-03-19T17:54:20.025Z,2.60
2023-03-19T17:56:47.047Z,1.90
2023-03-19T17:59:14.184Z,2.33
2023-03-19T18:01:45.134Z,3.90
2023-03-19T18:04:15.444Z,3.85
2023-03-19T18:06:46.413Z,3.72
2023-03-19T18:09:20.272Z,2.70
2023-03-19T18:11:47.138Z,2.75
2023-03-19T18:14:14.034Z,1.73
2023-03-19T18:16:41.577Z,2.22
2023-03-19T18:19:31.473Z,3.53
2023-03-19T18:21:58.483Z,2.88
2023-03-19T18:24:25.590Z,3.35
2023-03-19T18:26:52.640Z,3.95
2023-03-19T18:29:19.542Z,7.82
2023-03-19T18:31:49.034Z,4.72
2023-03-19T18:34:17.701Z,6.22
2023-03-19T18:36:44.767Z,4.03
2023-03-19T18:39:16.204Z,7.10
2023-03-19T18:41:43.820Z,5.15
2023-03-19T18:44:12.242Z,3.53
2023-03-19T18:46:40.590Z,4.68
2023-03-19T18:49:18.770Z,4.75
2023-03-19T18:51:59.014Z,5.07
2023-03-19T18:54:28.667Z,4.50
2023-03-19T18:56:56.448Z,4.85
2023-03-19T18:59:30.558Z,5.50
2023-03-19T19:02:19.697Z,2.35
2023-03-19T19:07:17.422Z,2.65
2023-03-19T19:09:44.439Z,4.18
2023-03-19T19:12:18.354Z,5.82
2023-03-19T19:14:46.049Z,2.88
2023-03-19T19:17:29.223Z,3.65
2023-03-19T19:19:56.491Z,3.45
2023-03-19T19:22:23.423Z,2.95
2023-03-19T19:24:50.533Z,3.63
2023-03-19T19:27:21.229Z,5.25
2023-03-19T19:29:49.094Z,7.15
2023-03-19T19:32:28.623Z,2.55
2023-03-19T19:34:55.921Z,4.63
2023-03-19T19:37:23.603Z,4.13
2023-03-19T19:39:51.238Z,1.88
2023-03-19T19:42:21.444Z,1.92
2023-03-19T19:44:55.641Z,2.28
2023-03-19T19:47:22.749Z,2.65
2023-03-19T19:49:49.672Z,1.40
2023-03-19T19:52:21.624Z,3.72
2023-03-19T19:54:48.677Z,2.05
2023-03-19T19:57:25.012Z,3.22
2023-03-19T19:59:53.415Z,2.47
2023-03-19T20:02:33.192Z,2.20
2023-03-19T20:05:00.300Z,1.70
2023-03-19T20:07:27.604Z,1.77
2023-03-19T20:09:54.512Z,2.65
2023-03-19T20:12:29.358Z,1.75
2023-03-19T20:14:57.003Z,2.90
2023-03-19T20:17:24.177Z,3.35
2023-03-19T20:19:51.609Z,1.55
2023-03-19T20:22:19.166Z,2.72
2023-03-19T20:24:50.296Z,1.83
2023-03-19T20:27:20.902Z,1.73
2023-03-19T20:29:48.440Z,1.55
2023-03-19T20:32:33.414Z,1.30
2023-03-19T20:35:05.443Z,4.43
2023-03-19T20:37:32.319Z,4.13
2023-03-19T20:39:59.301Z,1.30
2023-03-19T20:42:30.021Z,2.10
2023-03-19T20:44:58.502Z,1.58
2023-03-19T20:47:26.004Z,2.60
2023-03-19T20:49:53.429Z,1.70
2023-03-19T20:52:20.766Z,2.35
2023-03-19T20:54:48.262Z,4.18
2023-03-19T20:57:23.022Z,2.70
2023-03-19T20:59:49.871Z,3.35
2023-03-19T21:02:19.034Z,2.97
2023-03-19T21:04:46.561Z,3.90
2023-03-19T21:07:35.639Z,2.72
2023-03-19T21:10:12.554Z,2.53
2023-03-19T21:12:39.419Z,5.20
2023-03-19T21:15:10.494Z,4.85
2023-03-19T21:17:37.406Z,2.03
2023-03-19T21:20:04.537Z,4.28
2023-03-19T21:22:32.376Z,2.80
2023-03-19T21:25:13.692Z,2.90
2023-03-19T21:27:45.283Z,4.95
2023-03-19T21:30:16.608Z,5.70
2023-03-19T21:32:43.552Z,6.25
2023-03-19T21:35:22.717Z,2.95
2023-03-19T21:37:50.415Z,3.50
2023-03-19T21:40:20.323Z,2.75
2023-03-19T21:42:51.080Z,2.08
2023-03-19T21:45:27.948Z,2.25
2023-03-19T21:48:01.913Z,2.22
2023-03-19T21:50:28.829Z,1.73
2023-03-19T21:53:00.676Z,1.58
2023-03-19T21:55:29.734Z,1.60
2023-03-19T21:57:57.640Z,5.30
2023-03-19T22:00:24.805Z,3.05
2023-03-19T22:02:52.013Z,2.10
2023-03-19T22:05:27.862Z,2.78
2023-03-19T22:07:55.692Z,1.45
2023-03-19T22:10:27.116Z,1.63
2023-03-19T22:12:54.445Z,2.03
2023-03-19T22:15:38.163Z,1.75
2023-03-19T22:18:07.390Z,1.73
2023-03-19T22:20:34.192Z,2.35
2023-03-19T22:23:01.052Z,2.63
2023-03-19T22:25:33.417Z,2.78
2023-03-19T22:28:01.242Z,3.60
2023-03-19T22:30:36.078Z,2.65
2023-03-19T22:33:12.481Z,2.20
2023-03-19T22:35:39.621Z,1.83
2023-03-19T22:38:06.649Z,3.47
2023-03-19T22:40:33.683Z,2.58
2023-03-19T22:43:01.052Z,2.47
2023-03-19T22:45:31.816Z,2.60
2023-03-19T22:47:59.587Z,2.08
2023-03-19T22:50:29.579Z,1.83
2023-03-19T22:52:57.544Z,3.25
2023-03-19T22:55:24.888Z,2.63
2023-03-19T22:57:52.189Z,4.40
2023-03-19T23:00:23.552Z,3.03
2023-03-19T23:02:57.846Z,2.85
2023-03-19T23:05:37.585Z,3.10
2023-03-19T23:08:06.518Z,4.40
2023-03-19T23:10:33.519Z,3.38
2023-03-19T23:13:00.991Z,4.70
2023-03-19T23:15:31.374Z,3.97
2023-03-19T23:17:59.729Z,2.90
2023-03-19T23:20:32.411Z,2.75
2023-03-19T23:22:59.336Z,2.33
2023-03-19T23:25:28.664Z,2.58
2023-03-19T23:28:00.709Z,1.83
2023-03-19T23:30:31.485Z,3.20
2023-03-19T23:33:00.667Z,2.13
2023-03-19T23:35:30.479Z,1.90
2023-03-19T23:37:58.900Z,3.13
2023-03-19T23:40:29.982Z,3.63
2023-03-19T23:42:58.589Z,3.08
2023-03-19T23:45:31.446Z,2.10
2023-03-19T23:48:00.889Z,2.10
2023-03-19T23:50:27.764Z,2.20
2023-03-19T23:52:54.982Z,2.30
2023-03-19T23:55:22.581Z,1.90
2023-03-19T23:57:49.983Z,2.50
